PST,Max TemperatureF,Mean TemperatureF,Min TemperatureF,Max Dew PointF,MeanDew PointF,Min DewpointF,Max Humidity, Mean Humidity, Min Humidity, Max Sea Level PressureIn, Mean Sea Level PressureIn, Min Sea Level PressureIn, Max VisibilityMiles, Mean VisibilityMiles, Min VisibilityMiles, Max Wind SpeedMPH, Mean Wind SpeedMPH, Max Gust SpeedMPH,PrecipitationIn, CloudCover, Events, WindDirDegrees
2013-1-1,16,13,10,12,10,8,92,84,79,30.53,30.29,30.15,10,1,0,7,3,,0.00,8,Fog-Snow,317
2013-1-2,25,16,8,11,8,6,92,83,46,30.54,30.34,30.25,10,2,0,13,3,18,0.00,6,Fog-Snow,164
2013-1-3,28,24,19,20,13,5,85,62,39,30.41,30.30,30.23,10,10,10,14,6,23,0.00,0,,180
2013-1-4,25,21,17,23,20,9,100,87,60,30.34,30.22,30.14,10,3,0,12,5,23,0.06,8,Fog-Rain-Snow,238
2013-1-5,26,24,21,23,21,19,93,89,86,30.33,30.20,30.00,10,4,0,9,5,18,0.00,6,Fog,182
2013-1-6,24,22,21,21,20,19,96,90,80,30.14,29.98,29.89,10,2,0,10,6,24,0.13,8,Fog-Snow,233
2013-1-7,30,26,23,28,23,19,93,88,80,30.03,29.84,29.72,8,2,0,17,9,46,0.45,8,Fog-Rain-Snow,237
2013-1-8,30,26,21,29,23,19,100,93,86,30.10,29.95,29.81,10,5,0,16,9,36,0.28,8,Fog-Rain-Snow,255
2013-1-9,30,27,24,30,26,21,100,94,86,29.94,29.70,29.50,10,2,0,17,10,36,0.71,8,Fog-Rain-Snow,195
2013-1-10,24,20,15,21,17,10,93,86,79,29.80,29.65,29.57,9,1,0,7,4,,0.25,8,Fog-Snow,327
2013-1-11,17,12,6,10,7,1,100,80,71,30.20,29.88,29.65,10,4,0,5,1,,0.08,7,Snow,329
2013-1-12,12,8,5,7,4,1,87,83,79,30.28,30.01,29.89,10,4,0,8,2,,0.04,7,Fog-Snow,296
2013-1-13,9,7,5,6,3,1,92,85,79,30.36,30.17,30.02,10,3,1,6,2,,0.00,,Snow,326
2013-1-14,12,8,3,11,7,1,100,92,85,30.44,30.19,30.01,5,1,0,7,2,,0.11,,Fog-Snow,222
2013-1-15,23,18,12,18,15,10,100,91,81,30.58,30.42,30.18,10,2,0,10,3,,0.00,2,Fog-Snow,294
2013-1-16,28,24,19,24,19,15,92,82,61,30.57,30.53,30.50,10,10,10,9,5,,0.03,0,,229
2013-1-17,30,28,25,22,18,15,75,70,61,30.49,30.41,30.29,10,10,10,10,8,16,0.00,0,,225
2013-1-18,32,28,24,18,16,12,75,64,54,30.30,30.25,30.12,10,10,10,12,7,23,0.00,0,,245
2013-1-19,32,28,24,17,14,11,72,57,49,30.38,30.34,30.17,10,10,10,10,7,17,0.00,0,,252
2013-1-20,34,29,24,18,15,10,65,57,42,30.44,30.37,30.18,10,10,10,8,6,,0.00,0,,313
2013-1-21,36,32,27,14,10,7,49,43,35,30.30,30.12,30.05,10,10,10,8,4,,0.00,0,,257
2013-1-22,35,30,26,14,9,6,49,41,30,30.21,30.06,29.97,10,10,10,9,6,,0.00,0,,207
2013-1-23,37,32,26,29,21,11,100,74,36,29.96,29.87,29.78,10,5,0,16,9,30,0.00,4,Fog-Snow,190
2013-1-24,27,25,23,27,23,21,100,94,86,30.21,30.06,29.82,10,5,0,12,6,23,0.00,8,Fog-Snow,209
2013-1-25,32,30,28,31,29,27,100,94,87,30.16,29.95,29.75,1,0,0,9,6,20,0.00,,Fog-Snow,198
2013-1-26,32,26,21,29,23,18,93,86,80,29.89,29.77,29.68,10,4,0,8,4,16,0.00,8,Fog-Snow,289
2013-1-27,24,22,21,19,18,17,93,86,80,29.92,29.80,29.74,10,3,0,9,4,18,0.00,8,Fog-Snow,250
2013-1-28,24,22,19,19,17,15,86,84,74,29.88,29.73,29.64,8,1,0,10,4,16,0.00,8,Fog-Snow,278
2013-1-29,25,22,19,21,17,16,86,84,74,30.14,29.91,29.65,10,1,0,9,7,22,0.00,8,Fog-Rain-Snow,324
2013-1-30,30,27,24,27,24,21,93,85,80,30.17,30.08,29.94,1,0,0,9,7,24,0.00,,Fog-Snow,321
2013-1-31,33,32,30,28,27,26,88,86,82,30.15,30.07,29.98,3,0,0,8,5,22,0.00,8,Fog-Snow,300